Time;durP1;ratioP1;P1;durP2;ratioP2;P2;SDS_P1;SDS_P2;PMS_P1;PMS_P2;Temp;Humidity;BMP_temperature;BMP_pressure;BME280_temperature;BME280_humidity;BME280_pressure;Samples;Min_cycle;Max_cycle;Signal;HPM_P1;HPM_P2
2022/05/11 00:01:33;;;;;;;3.42;1.83;;;;;;;16.49;59.35;101195.53;5033224;28;20075;-94
2022/05/11 00:03:59;;;;;;;3.67;1.88;;;;;;;16.52;59.19;101197.66;5032503;28;20156;-94
2022/05/11 00:06:26;;;;;;;6.20;2.00;;;;;;;16.44;59.54;101192.88;5033922;28;20017;-94
2022/05/11 00:08:53;;;;;;;3.70;1.90;;;;;;;16.43;60.06;101197.47;5037856;28;20029;-93
2022/05/11 00:11:23;;;;;;;4.85;2.00;;;;;;;16.35;60.63;101198.91;5035610;28;20480;-93
2022/05/11 00:13:49;;;;;;;4.10;2.00;;;;;;;16.29;60.42;101194.66;5032707;28;20029;-93
2022/05/11 00:16:15;;;;;;;6.77;1.80;;;;;;;16.25;61.26;101190.13;5033537;28;20033;-94
2022/05/11 00:18:41;;;;;;;6.37;2.00;;;;;;;16.29;60.48;101186.56;5031555;28;20288;-93
2022/05/11 00:21:09;;;;;;;5.30;2.20;;;;;;;16.27;60.19;101180.63;5031834;28;20029;-92
2022/05/11 00:23:35;;;;;;;6.20;2.08;;;;;;;16.27;59.99;101177.91;5031319;28;20049;-93
2022/05/11 00:26:00;;;;;;;5.63;2.30;;;;;;;16.31;59.68;101180.84;5033781;28;20049;-93
2022/05/11 00:28:26;;;;;;;4.40;2.00;;;;;;;16.28;59.87;101173.31;5035882;28;20400;-92
2022/05/11 00:30:52;;;;;;;4.43;2.27;;;;;;;16.27;59.76;101169.81;5052494;28;20045;-93
2022/05/11 00:33:18;;;;;;;4.25;2.08;;;;;;;16.27;59.73;101166.28;5033460;28;20029;-93
2022/05/11 00:35:45;;;;;;;7.47;2.30;;;;;;;16.29;59.57;101159.50;5032434;28;20069;-93
2022/05/11 00:38:12;;;;;;;3.53;2.20;;;;;;;16.29;59.20;101161.41;5032213;28;20451;-93
2022/05/11 00:40:47;;;;;;;5.07;1.97;;;;;;;16.28;59.31;101157.09;5032293;28;20355;-93
2022/05/11 00:43:12;;;;;;;5.93;1.95;;;;;;;16.27;59.21;101150.88;5031644;28;20472;-93
2022/05/11 00:45:48;;;;;;;4.90;2.05;;;;;;;16.26;58.93;101146.56;5027380;28;20104;-93
2022/05/11 00:51:11;;;;;;;3.90;1.70;;;;;;;16.25;58.61;101146.88;5032837;28;20083;-92
2022/05/11 00:53:40;;;;;;;4.57;1.80;;;;;;;16.27;58.51;101141.94;5031897;28;20686;-93
2022/05/11 00:56:05;;;;;;;3.05;1.98;;;;;;;16.25;58.60;101139.56;5012812;28;20037;-94
2022/05/11 00:58:39;;;;;;;3.90;1.70;;;;;;;16.26;58.84;101134.94;5012723;28;20030;-93
2022/05/11 01:01:04;;;;;;;4.43;1.30;;;;;;;16.24;58.71;101127.13;5010799;28;20089;-93
2022/05/11 01:03:34;;;;;;;3.22;1.70;;;;;;;16.23;58.75;101133.63;5012503;28;20485;-93
2022/05/11 01:06:00;;;;;;;3.40;1.60;;;;;;;16.27;59.11;101131.13;5012452;28;20049;-93
2022/05/11 01:08:28;;;;;;;3.33;1.40;;;;;;;16.27;58.85;101136.53;5012545;28;20631;-93
2022/05/11 01:10:53;;;;;;;4.97;1.65;;;;;;;16.24;58.92;101135.22;5020579;28;20563;-93
2022/05/11 01:13:19;;;;;;;5.75;1.75;;;;;;;16.24;59.29;101132.53;5030214;28;20037;-93
2022/05/11 01:15:49;;;;;;;4.27;1.57;;;;;;;16.23;59.13;101125.50;5035238;28;20099;-94
2022/05/11 01:18:16;;;;;;;3.72;1.73;;;;;;;16.22;59.12;101123.09;5031222;28;20079;-93
2022/05/11 01:20:44;;;;;;;2.85;2.10;;;;;;;16.18;59.28;101118.28;5031700;28;20038;-92
2022/05/11 01:23:22;;;;;;;4.30;1.70;;;;;;;16.22;59.00;101112.28;5032170;28;20078;-93
2022/05/11 01:25:47;;;;;;;6.57;1.70;;;;;;;16.16;59.45;101104.25;5032161;28;20091;-93
2022/05/11 01:28:15;;;;;;;2.83;1.63;;;;;;;16.15;59.75;101105.31;5031860;28;20038;-93
2022/05/11 01:30:48;;;;;;;6.05;1.63;;;;;;;16.17;59.98;101105.84;5031163;28;20120;-93
2022/05/11 01:33:18;;;;;;;3.30;1.40;;;;;;;16.10;60.32;101102.69;5035857;28;20203;-92
2022/05/11 01:35:49;;;;;;;3.97;1.52;;;;;;;16.14;59.88;101097.53;5043893;28;20026;-93
2022/05/11 01:38:17;;;;;;;3.97;1.48;;;;;;;16.12;60.24;101111.31;5042956;28;20033;-93
2022/05/11 01:40:42;;;;;;;3.15;1.50;;;;;;;16.09;60.70;101113.78;5032855;28;20038;-93
2022/05/11 01:43:14;;;;;;;4.77;1.80;;;;;;;16.08;59.74;101104.84;5031287;28;20060;-93
2022/05/11 01:45:39;;;;;;;4.40;1.63;;;;;;;16.10;59.82;101104.59;5028855;28;20029;-93
2022/05/11 01:48:05;;;;;;;4.03;1.90;;;;;;;16.08;60.21;101102.16;5032156;28;20029;-93
2022/05/11 01:50:30;;;;;;;3.88;1.52;;;;;;;16.06;59.88;101101.66;5033609;28;20085;-93
2022/05/11 01:52:55;;;;;;;4.90;1.67;;;;;;;16.10;60.16;101102.69;5031511;28;20042;-93
2022/05/11 01:55:21;;;;;;;6.53;1.70;;;;;;;16.10;60.28;101105.38;5032262;28;20484;-93
2022/05/11 01:57:46;;;;;;;9.03;1.87;;;;;;;16.08;60.44;101102.16;5033287;28;20021;-93
2022/05/11 02:00:12;;;;;;;2.53;1.47;;;;;;;16.05;60.78;101105.47;5031268;28;20109;-91
2022/05/11 02:02:37;;;;;;;3.53;1.70;;;;;;;16.08;60.81;101107.56;5032101;28;20044;-93
2022/05/11 02:07:51;;;;;;;5.72;1.52;;;;;;;16.02;60.56;101093.31;5031903;28;20512;-92
2022/05/11 02:10:25;;;;;;;2.90;1.70;;;;;;;16.02;60.98;101096.00;5032460;28;20412;-93
2022/05/11 02:12:50;;;;;;;7.03;1.67;;;;;;;16.03;60.61;101096.84;5033438;28;20028;-92
2022/05/11 02:15:18;;;;;;;2.88;1.63;;;;;;;15.97;61.58;101093.38;5032422;28;20021;-92
2022/05/11 02:17:45;;;;;;;2.97;1.80;;;;;;;16.01;61.28;101096.31;5030991;28;20025;-94
2022/05/11 02:20:13;;;;;;;3.90;1.75;;;;;;;15.95;60.94;101089.34;5042612;28;20032;-94
2022/05/11 02:22:40;;;;;;;5.55;1.90;;;;;;;15.95;60.97;101082.06;5053329;28;20028;-93
2022/05/11 02:25:06;;;;;;;5.53;1.92;;;;;;;15.96;61.43;101096.34;5051238;28;20036;-93
2022/05/11 02:27:32;;;;;;;6.90;1.95;;;;;;;15.93;61.22;101086.13;5051981;28;20036;-91
2022/05/11 02:29:57;;;;;;;5.80;2.00;;;;;;;15.92;61.48;101088.03;5042529;28;20025;-94
2022/05/11 02:32:23;;;;;;;4.10;2.37;;;;;;;15.94;61.19;101079.63;5046449;28;20056;-93
2022/05/11 02:37:33;;;;;;;4.17;1.70;;;;;;;15.90;61.52;101091.00;5050534;28;20144;-93
2022/05/11 02:39:59;;;;;;;3.53;1.87;;;;;;;15.93;61.14;101092.34;5042175;28;20275;-93
2022/05/11 02:42:24;;;;;;;5.80;1.90;;;;;;;15.89;61.47;101086.69;5039307;28;20381;-93
2022/05/11 02:44:49;;;;;;;4.13;2.20;;;;;;;15.89;61.49;101088.59;5040146;28;20233;-93
2022/05/11 02:47:14;;;;;;;6.00;2.00;;;;;;;15.89;61.36;101081.28;5038557;28;20063;-94
2022/05/11 02:49:40;;;;;;;5.27;1.90;;;;;;;15.88;61.39;101093.22;5033610;28;20037;-93
2022/05/11 02:52:05;;;;;;;3.93;1.90;;;;;;;15.87;61.62;101082.69;5033815;28;20110;-93
2022/05/11 02:54:30;;;;;;;5.35;1.77;;;;;;;15.85;61.22;101077.56;5035707;28;20566;-93
2022/05/11 02:56:56;;;;;;;2.83;1.70;;;;;;;15.81;61.41;101076.50;5035586;28;20053;-93
2022/05/11 02:59:21;;;;;;;9.17;1.80;;;;;;;15.86;61.32;101081.06;5035451;28;20476;-94
2022/05/11 03:01:51;;;;;;;4.27;1.63;;;;;;;15.82;60.89;101080.81;5035513;28;20033;-93
2022/05/11 03:04:17;;;;;;;5.72;1.70;;;;;;;15.87;61.41;101080.78;5036059;28;20033;-93
2022/05/11 03:06:47;;;;;;;3.88;1.73;;;;;;;15.83;61.28;101078.91;5035330;28;20030;-93
2022/05/11 03:09:13;;;;;;;1.85;1.40;;;;;;;15.85;61.48;101082.13;5032925;28;20060;-93
2022/05/11 03:11:38;;;;;;;2.83;1.53;;;;;;;15.86;61.46;101070.25;5041572;28;20037;-94
2022/05/11 03:14:03;;;;;;;5.90;1.50;;;;;;;15.83;61.33;101070.78;5034882;28;20030;-93
2022/05/11 03:16:28;;;;;;;3.28;1.50;;;;;;;15.79;60.87;101057.06;5035662;28;20071;-94
2022/05/11 03:18:54;;;;;;;5.50;1.83;;;;;;;15.82;60.86;101058.38;5034871;28;20048;-94
2022/05/11 03:21:21;;;;;;;6.93;1.60;;;;;;;15.81;60.62;101059.47;5034281;28;20726;-93
2022/05/11 03:23:47;;;;;;;2.70;1.40;;;;;;;15.76;61.34;101052.22;5035016;28;20424;-93
2022/05/11 03:26:14;;;;;;;4.97;1.63;;;;;;;15.77;60.98;101053.84;5031520;28;20040;-93
2022/05/11 03:28:39;;;;;;;2.65;1.50;;;;;;;15.78;60.77;101055.47;5034071;28;20678;-94
2022/05/11 03:31:05;;;;;;;3.20;1.50;;;;;;;15.73;61.00;101050.91;5035405;28;20071;-93
2022/05/11 03:36:14;;;;;;;6.05;1.50;;;;;;;15.71;61.44;101039.59;5040510;28;20464;-93
2022/05/11 03:38:39;;;;;;;2.60;1.40;;;;;;;15.68;61.33;101052.88;5040929;28;20026;-93
2022/05/11 03:41:04;;;;;;;2.97;1.40;;;;;;;15.66;61.32;101046.97;5042648;28;20033;-90
2022/05/11 03:43:30;;;;;;;3.60;1.50;;;;;;;15.66;61.38;101046.97;5043004;28;20056;-92
2022/05/11 03:45:55;;;;;;;3.83;1.23;;;;;;;15.65;61.39;101040.72;5043731;28;20029;-92
2022/05/11 03:48:20;;;;;;;3.87;1.50;;;;;;;15.64;61.54;101046.44;5035213;28;20069;-91
2022/05/11 03:50:45;;;;;;;1.67;1.30;;;;;;;15.63;61.59;101031.31;5032530;28;20786;-93
2022/05/11 03:53:11;;;;;;;3.43;1.40;;;;;;;15.59;61.44;101034.59;5035056;28;20025;-92
2022/05/11 03:55:36;;;;;;;1.90;1.10;;;;;;;15.60;61.57;101027.31;5034175;28;20060;-92
2022/05/11 03:58:01;;;;;;;2.30;1.37;;;;;;;15.60;62.45;101032.72;5035844;28;20103;-92
2022/05/11 04:00:27;;;;;;;2.00;1.30;;;;;;;15.53;61.77;101030.31;5035235;28;20021;-93
2022/05/11 04:02:54;;;;;;;6.18;1.60;;;;;;;15.50;61.99;101030.09;5044136;28;20048;-92
2022/05/11 04:05:20;;;;;;;3.90;1.40;;;;;;;15.48;62.08;101034.97;5046263;28;20563;-92
2022/05/11 04:07:46;;;;;;;4.37;1.60;;;;;;;15.44;62.49;101029.34;5045054;28;20767;-91
2022/05/11 04:10:13;;;;;;;2.53;1.50;;;;;;;15.46;62.36;101037.97;5036270;28;20080;-92
2022/05/11 04:12:38;;;;;;;3.33;1.50;;;;;;;15.47;62.40;101034.19;5033706;28;20388;-92
2022/05/11 04:15:05;;;;;;;2.70;1.37;;;;;;;15.45;62.29;101031.75;5034818;28;20025;-92
2022/05/11 04:17:31;;;;;;;4.05;1.60;;;;;;;15.40;62.89;101028.31;5033678;28;20025;-92
2022/05/11 04:19:56;;;;;;;2.93;1.60;;;;;;;15.35;63.02;101028.34;5035198;28;20156;-92
2022/05/11 04:22:22;;;;;;;4.17;1.57;;;;;;;15.29;63.46;101033.00;5044978;28;20272;-92
2022/05/11 04:24:47;;;;;;;5.37;1.40;;;;;;;15.18;63.93;101028.78;5041355;28;20031;-92
2022/05/11 04:27:13;;;;;;;4.13;1.30;;;;;;;15.10;64.30;101032.91;5032359;28;20045;-93
2022/05/11 04:29:39;;;;;;;4.70;1.27;;;;;;;15.02;64.92;101025.41;5034158;28;20677;-93
2022/05/11 04:32:05;;;;;;;5.13;1.77;;;;;;;15.00;64.96;101028.41;5034278;28;20488;-92
2022/05/11 04:34:30;;;;;;;2.83;1.53;;;;;;;15.07;65.34;101022.69;5033006;28;20334;-92
2022/05/11 04:36:56;;;;;;;3.50;1.50;;;;;;;15.10;64.75;101032.91;5032942;28;20033;-93
2022/05/11 04:39:21;;;;;;;5.63;1.60;;;;;;;15.14;64.97;101023.97;5033245;28;20531;-92
2022/05/11 04:41:46;;;;;;;4.27;1.50;;;;;;;15.18;64.64;101024.19;5030397;28;20080;-91
2022/05/11 04:44:12;;;;;;;5.70;1.60;;;;;;;15.13;65.26;101030.44;5032627;28;20033;-92
2022/05/11 04:46:38;;;;;;;5.30;1.77;;;;;;;15.11;65.20;101029.91;5037052;28;20033;-92
2022/05/11 04:49:17;;;;;;;3.67;1.48;;;;;;;15.06;65.51;101029.97;5035025;28;20500;-93
2022/05/11 04:51:50;;;;;;;5.28;1.50;;;;;;;15.01;65.87;101027.31;5032106;28;20045;-93
2022/05/11 04:54:17;;;;;;;3.08;1.50;;;;;;;15.23;65.45;101032.25;5032966;28;20676;-93
2022/05/11 04:56:42;;;;;;;4.47;1.70;;;;;;;15.63;64.52;101020.50;5032324;28;20060;-93
2022/05/11 04:59:08;;;;;;;8.50;1.60;;;;;;;16.10;62.91;101020.78;5032866;28;20476;-93
2022/05/11 05:01:35;;;;;;;5.80;1.50;;;;;;;16.67;61.30;101012.66;5031228;28;20113;-93
2022/05/11 05:04:03;;;;;;;6.03;1.83;;;;;;;17.25;59.64;101024.22;5032195;28;20524;-93
2022/05/11 05:06:33;;;;;;;4.90;1.60;;;;;;;17.86;57.37;101021.44;5030905;28;20049;-93
2022/05/11 05:09:04;;;;;;;11.07;1.60;;;;;;;18.34;56.26;101030.22;5032485;28;20029;-93
2022/05/11 05:11:30;;;;;;;10.67;2.03;;;;;;;18.83;54.42;101028.50;5032003;28;20307;-93
2022/05/11 05:13:59;;;;;;;6.00;1.45;;;;;;;19.05;53.49;101033.19;5032227;28;20060;-93
2022/05/11 05:16:25;;;;;;;9.63;1.77;;;;;;;19.60;52.59;101030.38;5031573;28;20049;-93
2022/05/11 05:18:51;;;;;;;9.80;1.75;;;;;;;20.00;51.11;101033.09;5031374;28;20033;-93
2022/05/11 05:21:17;;;;;;;8.07;1.45;;;;;;;20.24;50.10;101040.81;5031715;28;20392;-92
2022/05/11 05:23:42;;;;;;;5.65;1.50;;;;;;;20.40;49.84;101030.25;5030270;28;20048;-93
2022/05/11 05:26:07;;;;;;;3.83;1.33;;;;;;;20.57;49.35;101045.78;5032504;28;20480;-93
2022/05/11 05:31:21;;;;;;;4.45;1.63;;;;;;;20.57;49.06;101043.06;5031280;28;20045;-93
2022/05/11 05:33:47;;;;;;;4.68;1.80;;;;;;;20.40;48.80;101051.22;5030145;28;20030;-93
2022/05/11 05:36:12;;;;;;;4.47;1.70;;;;;;;20.00;50.10;101049.41;5031920;28;20037;-94
2022/05/11 05:38:38;;;;;;;2.70;1.53;;;;;;;19.76;50.48;101045.16;5030398;28;20026;-92
2022/05/11 05:41:07;;;;;;;1.73;1.40;;;;;;;19.57;51.14;101042.69;5030785;28;20052;-92
2022/05/11 05:43:33;;;;;;;4.57;1.48;;;;;;;19.28;52.12;101049.41;5031229;28;20025;-92
2022/05/11 05:45:58;;;;;;;2.73;1.63;;;;;;;18.91;52.31;101026.97;5025349;28;20526;-91
2022/05/11 05:48:24;;;;;;;9.03;1.57;;;;;;;18.71;53.76;101039.13;5030792;28;20032;-93
2022/05/11 05:50:50;;;;;;;6.75;1.80;;;;;;;18.53;54.47;101043.63;5030702;28;20028;-91
2022/05/11 05:53:19;;;;;;;3.07;1.63;;;;;;;18.28;54.60;101043.09;5034225;28;20025;-96
2022/05/11 05:55:49;;;;;;;3.23;1.50;;;;;;;18.10;55.90;101042.09;5039187;28;20277;-96
2022/05/11 05:58:15;;;;;;;4.28;1.90;;;;;;;18.00;56.37;101049.34;5032419;28;20033;-91
2022/05/11 06:00:41;;;;;;;8.23;1.55;;;;;;;17.91;56.45;101039.50;5031411;28;20030;-90
2022/05/11 06:03:07;;;;;;;7.03;1.73;;;;;;;17.73;55.51;101049.31;5030322;28;20772;-90
2022/05/11 06:05:32;;;;;;;4.23;2.00;;;;;;;17.69;56.72;101060.78;5034335;28;20033;-91
2022/05/11 06:07:58;;;;;;;2.63;1.70;;;;;;;17.62;56.23;101062.28;5033420;28;20040;-91
2022/05/11 06:10:26;;;;;;;3.90;1.80;;;;;;;17.56;56.28;101062.38;5030084;28;20037;-90
2022/05/11 06:12:52;;;;;;;3.78;1.65;;;;;;;17.56;57.07;101053.44;5027749;28;20032;-89
2022/05/11 06:15:18;;;;;;;3.35;1.50;;;;;;;17.55;56.54;101055.34;5031193;28;20022;-91
2022/05/11 06:17:43;;;;;;;4.63;1.87;;;;;;;17.35;56.34;101032.13;5028392;28;20029;-93
2022/05/11 06:20:09;;;;;;;2.77;1.60;;;;;;;17.41;55.55;101049.91;5024629;28;20104;-90
2022/05/11 06:22:38;;;;;;;4.93;1.70;;;;;;;17.43;55.88;101051.50;5029181;28;20029;-91
2022/05/11 06:25:04;;;;;;;3.85;1.58;;;;;;;17.45;56.06;101041.97;5020516;28;20077;-93
2022/05/11 06:27:30;;;;;;;7.05;1.70;;;;;;;17.47;55.60;101041.69;5028136;28;20056;-92
2022/05/11 06:29:58;;;;;;;4.25;1.60;;;;;;;17.52;54.98;101045.09;5030848;28;20645;-87
2022/05/11 06:32:24;;;;;;;4.87;1.70;;;;;;;17.58;55.47;101040.41;5029715;28;20504;-87
2022/05/11 06:34:51;;;;;;;6.30;1.60;;;;;;;17.72;55.16;101043.13;5029683;28;20355;-86
2022/05/11 06:37:16;;;;;;;3.92;1.50;;;;;;;17.81;54.58;101030.44;5030274;28;20059;-90
2022/05/11 06:39:42;;;;;;;4.05;1.65;;;;;;;17.93;54.94;101029.94;5030194;28;20056;-91
2022/05/11 06:42:08;;;;;;;6.90;1.10;;;;;;;18.06;53.50;101031.06;5030923;28;20033;-92
2022/05/11 06:44:34;;;;;;;6.18;1.30;;;;;;;18.14;53.66;101029.56;5029707;28;20087;-92
2022/05/11 06:46:59;;;;;;;5.22;1.40;;;;;;;18.22;52.35;101034.28;5022519;28;20346;-93
2022/05/11 06:49:25;;;;;;;5.97;1.50;;;;;;;18.32;52.34;101035.97;5032872;28;20030;-95
2022/05/11 06:51:50;;;;;;;5.33;1.40;;;;;;;18.41;51.81;101027.91;5039313;28;20270;-91
2022/05/11 06:59:44;;;;;;;6.20;1.38;;;;;;;18.71;50.66;101031.00;5031645;28;20555;-92
2022/05/11 07:02:09;;;;;;;6.18;1.30;;;;;;;18.84;51.36;101021.19;5029143;28;20026;-92
2022/05/11 07:04:37;;;;;;;2.90;1.20;;;;;;;18.95;50.93;101033.41;5025073;28;20036;-95
2022/05/11 07:07:03;;;;;;;4.25;1.30;;;;;;;19.08;51.15;101041.81;5030281;28;20026;-86
2022/05/11 07:09:31;;;;;;;8.50;1.65;;;;;;;19.07;50.35;101046.44;5029049;28;20030;-89
2022/05/11 07:14:41;;;;;;;8.02;1.85;;;;;;;19.06;50.42;101033.97;5029767;28;20111;-90
2022/05/11 07:17:07;;;;;;;5.47;1.60;;;;;;;19.17;50.34;101035.31;5030197;28;20029;-90
2022/05/11 07:19:33;;;;;;;7.73;1.90;;;;;;;19.42;49.85;101037.69;5027409;28;20379;-89
2022/05/11 07:21:59;;;;;;;3.65;1.35;;;;;;;19.68;49.93;101043.22;5029426;28;20032;-89
2022/05/11 07:24:24;;;;;;;6.38;1.77;;;;;;;19.83;49.48;101041.97;5029670;28;20160;-90
2022/05/11 07:26:51;;;;;;;5.80;1.83;;;;;;;19.79;48.44;101047.25;5030190;28;20105;-91
2022/05/11 07:29:16;;;;;;;5.78;1.60;;;;;;;19.77;48.94;101037.81;5030035;28;20029;-90
2022/05/11 07:31:42;;;;;;;3.77;1.70;;;;;;;19.85;48.94;101042.47;5029129;28;20498;-91
2022/05/11 07:34:07;;;;;;;4.97;1.60;;;;;;;19.93;48.78;101032.75;5027722;28;20033;-91
2022/05/11 07:36:32;;;;;;;9.67;2.30;;;;;;;19.82;48.49;101037.66;5030350;28;20037;-90
2022/05/11 07:38:58;;;;;;;5.20;1.85;;;;;;;19.89;48.46;101037.25;5033725;28;20099;-90
2022/05/11 07:41:23;;;;;;;4.73;1.90;;;;;;;20.00;47.91;101011.34;5033371;28;20075;-90
2022/05/11 07:43:49;;;;;;;7.70;1.77;;;;;;;20.27;47.49;101033.91;5033994;28;20036;-90
2022/05/11 07:46:14;;;;;;;8.90;2.00;;;;;;;20.61;46.56;101035.06;5022833;28;20026;-90
2022/05/11 07:48:40;;;;;;;6.97;1.70;;;;;;;20.65;46.28;101030.56;5021170;28;20060;-90
2022/05/11 07:51:05;;;;;;;2.90;1.43;;;;;;;20.53;46.10;101033.13;5033545;28;20500;-90
2022/05/11 07:53:32;;;;;;;6.78;1.60;;;;;;;20.64;45.70;101026.25;5033187;28;20029;-90
2022/05/11 08:01:27;;;;;;;4.57;1.58;;;;;;;20.72;44.80;101043.72;5032599;28;20113;-90
2022/05/11 08:03:52;;;;;;;8.15;1.80;;;;;;;20.81;44.78;101038.28;5032086;28;20120;-91
2022/05/11 08:06:19;;;;;;;10.00;1.67;;;;;;;20.98;43.97;101042.88;5033463;28;20049;-91
2022/05/11 08:08:47;;;;;;;6.57;1.70;;;;;;;21.15;42.57;101039.34;5033412;28;20025;-92
2022/05/11 08:11:13;;;;;;;4.70;1.73;;;;;;;21.19;43.21;101043.00;5031902;28;20494;-89
2022/05/11 08:13:39;;;;;;;7.63;1.48;;;;;;;21.32;43.12;101046.66;5035614;28;20469;-91
2022/05/11 08:16:04;;;;;;;8.87;1.90;;;;;;;21.36;42.28;101049.53;5036583;28;20040;-89
2022/05/11 08:18:30;;;;;;;5.18;1.60;;;;;;;21.58;42.29;101043.81;5031663;28;20041;-89
2022/05/11 08:20:55;;;;;;;6.03;1.80;;;;;;;21.67;42.28;101032.13;5032569;28;20029;-90
2022/05/11 08:23:21;;;;;;;4.40;1.57;;;;;;;21.84;42.49;101040.19;5032166;28;20075;-89
2022/05/11 08:25:47;;;;;;;4.82;1.80;;;;;;;21.88;41.88;101035.69;5032689;28;20508;-89
2022/05/11 08:28:18;;;;;;;5.32;1.90;;;;;;;22.02;41.70;101038.16;5032489;28;20102;-90
2022/05/11 08:33:31;;;;;;;4.17;1.50;;;;;;;21.52;42.17;101028.78;5034268;28;20275;-89
2022/05/11 08:36:00;;;;;;;6.28;2.00;;;;;;;21.48;42.00;101033.28;5036810;28;20040;-90
2022/05/11 08:38:31;;;;;;;9.50;2.20;;;;;;;21.43;42.26;101030.75;5034406;28;20481;-90
2022/05/11 08:41:14;;;;;;;5.30;1.83;;;;;;;21.43;42.62;101026.09;5050826;28;20493;-90
2022/05/11 08:43:41;;;;;;;4.03;1.83;;;;;;;21.52;42.64;101023.34;5036618;28;20041;-90
2022/05/11 08:46:20;;;;;;;8.63;2.15;;;;;;;21.59;42.68;101029.06;5035917;28;20029;-90
2022/05/11 08:48:59;;;;;;;7.85;2.20;;;;;;;21.77;43.01;101031.72;5035404;28;20025;-90
2022/05/11 08:51:48;;;;;;;8.05;1.85;;;;;;;21.92;41.53;101025.69;5034677;28;20056;-91
2022/05/11 08:54:23;;;;;;;7.55;2.22;;;;;;;21.85;42.52;101030.06;5037246;28;20024;-89
2022/05/11 08:56:51;;;;;;;8.33;2.23;;;;;;;21.82;41.17;101033.50;5036325;28;20354;-90
2022/05/11 08:59:31;;;;;;;12.10;2.10;;;;;;;21.84;42.21;101012.13;5034151;28;20292;-89
2022/05/11 09:02:05;;;;;;;9.13;1.80;;;;;;;22.01;42.84;101024.84;5033134;28;20036;-90
2022/05/11 09:04:44;;;;;;;5.50;2.00;;;;;;;22.12;42.40;101031.50;5033650;28;20033;-90
2022/05/11 09:07:10;;;;;;;7.65;2.28;;;;;;;22.19;41.79;101022.78;5033264;28;20061;-90
2022/05/11 09:09:44;;;;;;;6.15;2.20;;;;;;;22.11;41.69;101032.63;5032209;28;20388;-89
2022/05/11 09:12:13;;;;;;;5.88;2.20;;;;;;;22.20;41.23;101017.00;5034077;28;20060;-90
2022/05/11 09:14:44;;;;;;;13.32;2.10;;;;;;;22.34;41.95;101018.66;5031628;28;20042;-90
2022/05/11 09:17:29;;;;;;;10.00;1.85;;;;;;;22.64;41.66;101013.16;5034658;28;20021;-90
2022/05/11 09:20:02;;;;;;;6.65;2.10;;;;;;;22.83;40.86;101015.38;5037477;28;20029;-89
2022/05/11 09:22:40;;;;;;;10.23;2.40;;;;;;;22.97;39.78;101009.63;5033521;28;20045;-90
2022/05/11 09:25:24;;;;;;;5.53;2.33;;;;;;;23.07;40.29;101016.56;5034020;28;20550;-89
2022/05/11 09:27:50;;;;;;;7.00;1.92;;;;;;;23.24;39.93;101007.38;5035290;28;20029;-90
2022/05/11 09:30:30;;;;;;;6.60;2.55;;;;;;;23.38;39.70;101021.53;5036428;28;20079;-89
2022/05/11 09:33:22;;;;;;;10.52;2.22;;;;;;;23.31;40.11;101004.91;5033697;28;20036;-90
2022/05/11 09:35:48;;;;;;;7.85;2.28;;;;;;;23.09;39.89;101004.16;5034708;28;20022;-89
2022/05/11 09:38:19;;;;;;;6.73;2.10;;;;;;;23.26;40.12;101013.31;5034324;28;20384;-89
2022/05/11 09:41:04;;;;;;;4.78;2.00;;;;;;;23.60;39.55;101016.75;5031190;28;20028;-89
2022/05/11 09:44:26;;;;;;;9.50;2.15;;;;;;;23.86;39.18;101007.38;5056357;22;20049;-90
2022/05/11 09:51:08;;;;;;;6.90;2.33;;;;;;;23.32;40.21;101014.69;5051765;28;20403;-90
2022/05/11 09:54:11;;;;;;;5.40;2.40;;;;;;;23.59;39.58;101001.47;5036661;28;20030;-89
2022/05/11 09:56:38;;;;;;;8.13;2.33;;;;;;;23.61;39.01;100995.69;5030015;28;20534;-90
2022/05/11 09:59:15;;;;;;;8.88;2.42;;;;;;;23.77;39.23;100999.31;5030601;28;20032;-90
2022/05/11 10:01:41;;;;;;;4.60;2.35;;;;;;;23.94;39.12;100998.25;5031181;28;20516;-90
2022/05/11 10:11:55;;;;;;;8.50;2.28;;;;;;;24.47;38.89;100994.69;5067201;22;20053;-90
2022/05/11 10:28:28;;;;;;;9.90;2.38;;;;;;;24.88;37.78;100989.16;5124089;22;20049;-90
2022/05/11 10:31:12;;;;;;;8.68;2.33;;;;;;;24.47;37.95;100964.56;5048190;28;20040;-89
2022/05/11 10:33:51;;;;;;;6.53;2.40;;;;;;;24.91;37.20;100983.75;5050094;28;20029;-89
2022/05/11 10:41:42;;;;;;;7.17;2.37;;;;;;;25.19;36.52;100960.97;5756209;22;20065;-90
2022/05/11 10:51:13;;;;;;;8.00;2.42;;;;;;;25.83;36.27;100960.06;4990978;28;20077;-90
2022/05/11 10:53:47;;;;;;;7.03;2.60;;;;;;;25.62;36.43;100954.88;4997347;28;20060;-89
2022/05/11 10:56:25;;;;;;;7.43;2.20;;;;;;;25.62;36.71;100954.88;5010878;28;20052;-90
2022/05/11 10:59:19;;;;;;;5.38;2.22;;;;;;;25.72;36.52;100953.53;5010656;28;20030;-90
2022/05/11 11:02:01;;;;;;;9.68;2.20;;;;;;;25.84;35.87;100950.66;5009591;28;20026;-91
2022/05/11 11:05:04;;;;;;;6.88;2.25;;;;;;;25.71;35.45;100952.75;5010339;28;20029;-90
2022/05/11 11:07:47;;;;;;;9.38;2.10;;;;;;;25.69;36.40;100947.59;5010111;28;20077;-90
2022/05/11 11:10:29;;;;;;;6.63;2.37;;;;;;;25.74;35.83;100946.53;5010535;28;20084;-90
2022/05/11 11:13:31;;;;;;;5.20;2.23;;;;;;;25.82;36.06;100947.50;5098123;22;20382;-89
2022/05/11 11:16:27;;;;;;;6.28;2.22;;;;;;;25.98;34.87;100944.66;5043094;28;20041;-90
2022/05/11 11:18:52;;;;;;;7.03;2.70;;;;;;;25.88;34.55;100945.25;5052452;28;20025;-90
2022/05/11 11:21:22;;;;;;;5.38;2.22;;;;;;;25.60;34.83;100936.06;5053681;28;20029;-89
2022/05/11 11:26:29;;;;;;;7.53;2.37;;;;;;;25.80;35.02;100936.06;5604305;22;20053;-90
2022/05/11 11:29:00;;;;;;;10.57;2.10;;;;;;;25.82;35.56;100937.28;5053740;28;20367;-89
2022/05/11 11:44:20;;;;;;;10.18;2.17;;;;;;;25.79;33.79;100918.81;5360463;22;20050;-90
2022/05/11 11:46:46;;;;;;;7.38;2.30;;;;;;;25.83;32.85;100902.44;5036325;28;20064;-90
2022/05/11 11:49:18;;;;;;;9.80;2.30;;;;;;;26.00;33.71;100906.69;5033730;28;20037;-90
2022/05/11 11:58:35;;;;;;;7.50;2.20;;;;;;;26.39;34.29;100903.91;5051428;28;20118;-89
2022/05/11 12:01:07;;;;;;;6.63;2.00;;;;;;;26.52;33.60;100911.97;5053679;28;20029;-90
2022/05/11 12:03:36;;;;;;;10.55;2.20;;;;;;;26.67;33.58;100905.56;5053369;28;20056;-90
2022/05/11 12:17:04;;;;;;;6.65;2.00;;;;;;;26.63;33.44;100882.75;5032522;28;20048;-89
2022/05/11 12:19:42;;;;;;;8.70;2.20;;;;;;;26.60;32.78;100887.00;5032556;28;20025;-90
2022/05/11 12:22:25;;;;;;;12.20;2.90;;;;;;;26.56;33.09;100866.13;5056196;22;20299;-89
2022/05/11 12:25:28;;;;;;;6.55;2.25;;;;;;;26.71;31.96;100881.69;5031867;28;20138;-89
2022/05/11 12:28:23;;;;;;;8.02;2.42;;;;;;;26.58;32.85;100872.84;5032076;28;20072;-89
2022/05/11 12:31:41;;;;;;;6.25;1.90;;;;;;;26.67;33.03;100867.09;5033109;28;20045;-89
2022/05/11 12:34:41;;;;;;;9.32;2.20;;;;;;;26.40;34.16;100871.72;5013304;28;20127;-89
2022/05/11 12:46:15;;;;;;;8.20;1.80;;;;;;;26.92;32.69;100864.00;5568041;23;20049;-89
2022/05/11 12:48:44;;;;;;;5.40;1.80;;;;;;;26.82;31.58;100848.13;5031924;28;20021;-89
2022/05/11 12:51:33;;;;;;;8.67;2.10;;;;;;;27.14;32.29;100869.81;5030075;28;20371;-88
2022/05/11 13:04:23;;;;;;;8.20;2.28;;;;;;;27.66;31.92;100857.16;5608141;22;20056;-89
2022/05/11 13:06:51;;;;;;;10.27;1.92;;;;;;;27.77;31.07;100864.75;5051113;28;20025;-89
2022/05/11 13:09:47;;;;;;;7.40;2.13;;;;;;;27.81;30.97;100862.81;5050789;28;20025;-89
2022/05/11 13:12:15;;;;;;;8.95;2.20;;;;;;;27.65;31.55;100861.06;5050833;28;20112;-88
2022/05/11 13:14:46;;;;;;;5.97;1.95;;;;;;;27.68;31.38;100856.00;5051572;28;20057;-88
2022/05/11 13:17:24;;;;;;;8.57;1.90;;;;;;;27.48;30.60;100858.91;5051943;28;20045;-89
2022/05/11 13:19:59;;;;;;;4.77;2.00;;;;;;;27.40;31.42;100854.41;5051379;28;20276;-89
2022/05/11 13:22:26;;;;;;;4.88;2.17;;;;;;;27.45;31.40;100854.91;5050538;28;20025;-89
2022/05/11 13:24:54;;;;;;;6.03;1.70;;;;;;;27.27;31.30;100851.91;5051248;28;20055;-88
2022/05/11 13:27:46;;;;;;;12.18;2.42;;;;;;;27.20;32.25;100846.34;5048551;28;20035;-89
2022/05/11 13:30:21;;;;;;;7.18;1.98;;;;;;;27.20;32.79;100846.34;5050977;28;20127;-88
2022/05/11 13:32:47;;;;;;;10.65;2.20;;;;;;;27.46;32.35;100841.97;5051101;28;20047;-88
2022/05/11 13:35:24;;;;;;;6.33;1.67;;;;;;;27.55;31.95;100839.75;5050474;28;20071;-88
2022/05/11 13:38:12;;;;;;;6.60;2.10;;;;;;;27.84;32.14;100840.06;5051626;28;20021;-89